Arp, Texas
Current Conditions -  °F | °C
As of 1:55 PM on Monday 24 Nov 2014 (Local Time) from KRFI Reporting Station
Clear Clear  
Wind Chill: 61°   Ceiling: Unl
Heat Index: 61°   Visibility: 10mi
Dew Point: 25°   Wind: 10mph
Humidity: 25%   Direction: 350°N
Pressure: 30.03"   Gusts: 16mph
Location:  32.23°N, 95.06°W
Report Text: KRFI 241955Z AUTO 35009G14KT 290V020 10SM CLR 16/M04 A3003 RMK AO2 T01631037
Loading
Personal Weather Stations






























Interactive Weather Map New forecast layout! Learn more

10-Day Weather Forecast

Advertisements
Track Severe Weather on mobile